sensor_id;sensor_type;location;lat;lon;timestamp;P1;durP1;ratioP1;P2;durP2;ratioP2
60426;SDS011;46274;47.168;27.604;2023-02-03T00:03:44;3.07;;;1.57;;
60426;SDS011;46274;47.168;27.604;2023-02-03T00:10:18;3.10;;;1.97;;
60426;SDS011;46274;47.168;27.604;2023-02-03T00:16:29;4.17;;;1.80;;
60426;SDS011;46274;47.168;27.604;2023-02-03T00:22:38;2.23;;;1.27;;
60426;SDS011;46274;47.168;27.604;2023-02-03T00:28:41;2.90;;;1.47;;
60426;SDS011;46274;47.168;27.604;2023-02-03T00:34:50;3.33;;;1.90;;
60426;SDS011;46274;47.168;27.604;2023-02-03T00:41:03;4.23;;;2.10;;
60426;SDS011;46274;47.168;27.604;2023-02-03T00:47:34;3.57;;;1.90;;
60426;SDS011;46274;47.168;27.604;2023-02-03T00:53:41;5.23;;;1.77;;
60426;SDS011;46274;47.168;27.604;2023-02-03T00:59:43;4.60;;;2.10;;
60426;SDS011;46274;47.168;27.604;2023-02-03T01:12:44;3.90;;;1.90;;
60426;SDS011;46274;47.168;27.604;2023-02-03T01:18:55;4.43;;;1.90;;
60426;SDS011;46274;47.168;27.604;2023-02-03T01:24:59;4.50;;;2.20;;
60426;SDS011;46274;47.168;27.604;2023-02-03T01:37:16;4.23;;;2.00;;
60426;SDS011;46274;47.168;27.604;2023-02-03T01:43:40;4.67;;;2.37;;
60426;SDS011;46274;47.168;27.604;2023-02-03T01:56:20;4.87;;;2.53;;
60426;SDS011;46274;47.168;27.604;2023-02-03T02:02:27;5.53;;;2.40;;
60426;SDS011;46274;47.168;27.604;2023-02-03T02:08:35;4.57;;;2.37;;
60426;SDS011;46274;47.168;27.604;2023-02-03T02:14:47;4.07;;;1.97;;
60426;SDS011;46274;47.168;27.604;2023-02-03T02:21:02;4.47;;;2.37;;
60426;SDS011;46274;47.168;27.604;2023-02-03T02:33:33;4.97;;;2.20;;
60426;SDS011;46274;47.168;27.604;2023-02-03T02:46:40;3.27;;;2.07;;
60426;SDS011;46274;47.168;27.604;2023-02-03T02:53:20;4.27;;;2.60;;
60426;SDS011;46274;47.168;27.604;2023-02-03T02:59:35;3.50;;;2.30;;
60426;SDS011;46274;47.168;27.604;2023-02-03T03:05:59;7.97;;;3.13;;
60426;SDS011;46274;47.168;27.604;2023-02-03T03:12:18;5.57;;;2.90;;
60426;SDS011;46274;47.168;27.604;2023-02-03T03:18:30;4.90;;;2.40;;
60426;SDS011;46274;47.168;27.604;2023-02-03T03:24:56;6.33;;;2.70;;
60426;SDS011;46274;47.168;27.604;2023-02-03T03:31:12;4.03;;;2.13;;
60426;SDS011;46274;47.168;27.604;2023-02-03T03:37:28;6.60;;;2.43;;
60426;SDS011;46274;47.168;27.604;2023-02-03T03:43:39;3.93;;;2.43;;
60426;SDS011;46274;47.168;27.604;2023-02-03T03:49:51;3.33;;;1.90;;
60426;SDS011;46274;47.168;27.604;2023-02-03T03:56:07;3.70;;;2.03;;
60426;SDS011;46274;47.168;27.604;2023-02-03T04:02:21;4.63;;;2.13;;
60426;SDS011;46274;47.168;27.604;2023-02-03T04:08:29;4.33;;;1.73;;
60426;SDS011;46274;47.168;27.604;2023-02-03T04:14:35;4.33;;;2.17;;
60426;SDS011;46274;47.168;27.604;2023-02-03T04:20:54;3.40;;;1.93;;
60426;SDS011;46274;47.168;27.604;2023-02-03T04:27:10;4.37;;;2.00;;
60426;SDS011;46274;47.168;27.604;2023-02-03T04:33:20;5.83;;;2.20;;
60426;SDS011;46274;47.168;27.604;2023-02-03T04:39:31;5.93;;;2.00;;
60426;SDS011;46274;47.168;27.604;2023-02-03T04:45:40;4.87;;;2.60;;
60426;SDS011;46274;47.168;27.604;2023-02-03T04:52:02;7.50;;;2.33;;
60426;SDS011;46274;47.168;27.604;2023-02-03T04:58:22;5.47;;;2.33;;
60426;SDS011;46274;47.168;27.604;2023-02-03T05:04:32;5.30;;;2.30;;
60426;SDS011;46274;47.168;27.604;2023-02-03T05:10:34;15.97;;;4.00;;
60426;SDS011;46274;47.168;27.604;2023-02-03T05:16:42;15.40;;;5.37;;
60426;SDS011;46274;47.168;27.604;2023-02-03T05:22:53;30.00;;;8.17;;
60426;SDS011;46274;47.168;27.604;2023-02-03T05:29:04;9.63;;;4.10;;
60426;SDS011;46274;47.168;27.604;2023-02-03T05:35:07;19.73;;;6.73;;
60426;SDS011;46274;47.168;27.604;2023-02-03T05:41:14;11.53;;;4.87;;
60426;SDS011;46274;47.168;27.604;2023-02-03T05:47:47;13.70;;;6.30;;
60426;SDS011;46274;47.168;27.604;2023-02-03T05:53:52;6.43;;;3.20;;
60426;SDS011;46274;47.168;27.604;2023-02-03T06:00:15;5.47;;;2.43;;
60426;SDS011;46274;47.168;27.604;2023-02-03T06:06:21;7.67;;;3.70;;
60426;SDS011;46274;47.168;27.604;2023-02-03T06:12:24;12.07;;;4.37;;
60426;SDS011;46274;47.168;27.604;2023-02-03T06:18:29;6.80;;;3.17;;
60426;SDS011;46274;47.168;27.604;2023-02-03T06:24:31;7.53;;;3.20;;
60426;SDS011;46274;47.168;27.604;2023-02-03T06:30:33;5.53;;;3.07;;
60426;SDS011;46274;47.168;27.604;2023-02-03T06:36:49;8.53;;;2.93;;
60426;SDS011;46274;47.168;27.604;2023-02-03T06:42:56;6.00;;;3.20;;
60426;SDS011;46274;47.168;27.604;2023-02-03T06:48:58;8.87;;;3.40;;
60426;SDS011;46274;47.168;27.604;2023-02-03T06:55:01;3.40;;;2.30;;
60426;SDS011;46274;47.168;27.604;2023-02-03T07:01:04;17.43;;;5.93;;
60426;SDS011;46274;47.168;27.604;2023-02-03T07:07:14;6.47;;;3.37;;
60426;SDS011;46274;47.168;27.604;2023-02-03T07:13:26;13.90;;;6.30;;
60426;SDS011;46274;47.168;27.604;2023-02-03T07:19:34;18.70;;;7.63;;
60426;SDS011;46274;47.168;27.604;2023-02-03T07:25:53;8.50;;;4.07;;
60426;SDS011;46274;47.168;27.604;2023-02-03T07:32:32;11.87;;;4.60;;
60426;SDS011;46274;47.168;27.604;2023-02-03T07:38:40;8.90;;;4.00;;
60426;SDS011;46274;47.168;27.604;2023-02-03T07:44:44;11.70;;;5.47;;
60426;SDS011;46274;47.168;27.604;2023-02-03T07:50:51;7.27;;;3.37;;
60426;SDS011;46274;47.168;27.604;2023-02-03T07:56:57;6.77;;;3.50;;
60426;SDS011;46274;47.168;27.604;2023-02-03T08:03:17;16.33;;;2.77;;
60426;SDS011;46274;47.168;27.604;2023-02-03T08:09:35;9.83;;;2.87;;
60426;SDS011;46274;47.168;27.604;2023-02-03T08:15:45;5.67;;;2.83;;
60426;SDS011;46274;47.168;27.604;2023-02-03T08:21:51;6.50;;;2.57;;
60426;SDS011;46274;47.168;27.604;2023-02-03T08:27:59;5.37;;;2.33;;
60426;SDS011;46274;47.168;27.604;2023-02-03T08:34:24;8.00;;;2.70;;
60426;SDS011;46274;47.168;27.604;2023-02-03T08:40:31;8.97;;;2.73;;
60426;SDS011;46274;47.168;27.604;2023-02-03T08:46:52;5.43;;;2.37;;
60426;SDS011;46274;47.168;27.604;2023-02-03T08:53:03;7.33;;;2.40;;
60426;SDS011;46274;47.168;27.604;2023-02-03T08:59:28;8.67;;;2.57;;
60426;SDS011;46274;47.168;27.604;2023-02-03T09:05:38;5.00;;;2.33;;
60426;SDS011;46274;47.168;27.604;2023-02-03T09:11:53;5.60;;;2.83;;
60426;SDS011;46274;47.168;27.604;2023-02-03T09:18:11;6.80;;;3.33;;
60426;SDS011;46274;47.168;27.604;2023-02-03T09:24:21;5.10;;;1.93;;
60426;SDS011;46274;47.168;27.604;2023-02-03T09:30:33;4.50;;;1.80;;
60426;SDS011;46274;47.168;27.604;2023-02-03T09:36:59;13.07;;;4.83;;
60426;SDS011;46274;47.168;27.604;2023-02-03T09:56:35;6.40;;;1.90;;
60426;SDS011;46274;47.168;27.604;2023-02-03T10:09:59;5.70;;;2.03;;
60426;SDS011;46274;47.168;27.604;2023-02-03T10:22:56;6.00;;;2.10;;
60426;SDS011;46274;47.168;27.604;2023-02-03T10:48:58;6.63;;;1.60;;
60426;SDS011;46274;47.168;27.604;2023-02-03T11:01:44;4.00;;;1.57;;
60426;SDS011;46274;47.168;27.604;2023-02-03T11:07:52;7.13;;;1.80;;
60426;SDS011;46274;47.168;27.604;2023-02-03T11:20:13;5.13;;;1.57;;
60426;SDS011;46274;47.168;27.604;2023-02-03T11:26:57;6.73;;;1.40;;
60426;SDS011;46274;47.168;27.604;2023-02-03T11:33:40;3.83;;;1.77;;
60426;SDS011;46274;47.168;27.604;2023-02-03T11:39:47;2.07;;;0.90;;
60426;SDS011;46274;47.168;27.604;2023-02-03T11:45:53;5.00;;;1.13;;
60426;SDS011;46274;47.168;27.604;2023-02-03T11:58:35;1.93;;;1.00;;
60426;SDS011;46274;47.168;27.604;2023-02-03T12:05:11;2.63;;;1.00;;
60426;SDS011;46274;47.168;27.604;2023-02-03T12:30:42;3.73;;;1.40;;
60426;SDS011;46274;47.168;27.604;2023-02-03T12:36:56;3.07;;;1.47;;
60426;SDS011;46274;47.168;27.604;2023-02-03T12:49:38;4.97;;;1.10;;
60426;SDS011;46274;47.168;27.604;2023-02-03T12:56:08;7.30;;;1.43;;
60426;SDS011;46274;47.168;27.604;2023-02-03T13:02:17;5.40;;;1.30;;
60426;SDS011;46274;47.168;27.604;2023-02-03T13:08:43;3.03;;;1.30;;
60426;SDS011;46274;47.168;27.604;2023-02-03T13:20:58;7.20;;;2.23;;
60426;SDS011;46274;47.168;27.604;2023-02-03T13:27:22;7.70;;;1.80;;
60426;SDS011;46274;47.168;27.604;2023-02-03T13:40:16;2.80;;;1.40;;
60426;SDS011;46274;47.168;27.604;2023-02-03T13:46:23;6.83;;;1.60;;
60426;SDS011;46274;47.168;27.604;2023-02-03T13:58:46;3.90;;;1.63;;
60426;SDS011;46274;47.168;27.604;2023-02-03T14:18:30;14.50;;;5.20;;
60426;SDS011;46274;47.168;27.604;2023-02-03T14:24:55;12.00;;;4.30;;
60426;SDS011;46274;47.168;27.604;2023-02-03T14:31:07;10.00;;;4.53;;
60426;SDS011;46274;47.168;27.604;2023-02-03T14:37:38;8.23;;;3.30;;
60426;SDS011;46274;47.168;27.604;2023-02-03T14:44:18;10.63;;;4.80;;
60426;SDS011;46274;47.168;27.604;2023-02-03T15:03:37;10.63;;;5.27;;
60426;SDS011;46274;47.168;27.604;2023-02-03T15:09:48;166.93;;;52.20;;
60426;SDS011;46274;47.168;27.604;2023-02-03T15:16:04;216.67;;;71.03;;
60426;SDS011;46274;47.168;27.604;2023-02-03T15:22:24;57.07;;;19.00;;
60426;SDS011;46274;47.168;27.604;2023-02-03T15:29:00;133.20;;;45.73;;
60426;SDS011;46274;47.168;27.604;2023-02-03T15:35:15;109.30;;;36.97;;
60426;SDS011;46274;47.168;27.604;2023-02-03T15:41:24;111.63;;;38.93;;
60426;SDS011;46274;47.168;27.604;2023-02-03T15:47:29;109.07;;;38.50;;
60426;SDS011;46274;47.168;27.604;2023-02-03T15:53:43;98.97;;;32.20;;
60426;SDS011;46274;47.168;27.604;2023-02-03T16:00:17;76.77;;;27.10;;
60426;SDS011;46274;47.168;27.604;2023-02-03T16:06:36;77.40;;;26.70;;
60426;SDS011;46274;47.168;27.604;2023-02-03T16:19:41;104.40;;;34.63;;
60426;SDS011;46274;47.168;27.604;2023-02-03T16:26:17;104.13;;;33.10;;
60426;SDS011;46274;47.168;27.604;2023-02-03T16:32:28;66.00;;;21.83;;
60426;SDS011;46274;47.168;27.604;2023-02-03T16:38:49;52.80;;;20.97;;
60426;SDS011;46274;47.168;27.604;2023-02-03T16:45:52;71.03;;;23.43;;
60426;SDS011;46274;47.168;27.604;2023-02-03T16:52:58;70.33;;;27.60;;
60426;SDS011;46274;47.168;27.604;2023-02-03T16:59:33;54.37;;;19.60;;
60426;SDS011;46274;47.168;27.604;2023-02-03T17:05:38;58.70;;;19.50;;
60426;SDS011;46274;47.168;27.604;2023-02-03T17:11:42;49.23;;;17.00;;
60426;SDS011;46274;47.168;27.604;2023-02-03T17:17:46;50.93;;;17.80;;
60426;SDS011;46274;47.168;27.604;2023-02-03T17:23:48;47.33;;;17.97;;
60426;SDS011;46274;47.168;27.604;2023-02-03T17:30:08;40.77;;;16.07;;
60426;SDS011;46274;47.168;27.604;2023-02-03T17:36:18;40.23;;;13.73;;
60426;SDS011;46274;47.168;27.604;2023-02-03T17:42:22;40.40;;;15.27;;
60426;SDS011;46274;47.168;27.604;2023-02-03T17:48:41;41.93;;;15.10;;
60426;SDS011;46274;47.168;27.604;2023-02-03T17:55:00;37.67;;;14.70;;
60426;SDS011;46274;47.168;27.604;2023-02-03T18:01:10;28.87;;;11.83;;
60426;SDS011;46274;47.168;27.604;2023-02-03T18:07:31;40.63;;;13.80;;
60426;SDS011;46274;47.168;27.604;2023-02-03T18:13:40;32.00;;;12.60;;
60426;SDS011;46274;47.168;27.604;2023-02-03T18:19:45;30.67;;;9.67;;
60426;SDS011;46274;47.168;27.604;2023-02-03T18:25:57;23.03;;;9.87;;
60426;SDS011;46274;47.168;27.604;2023-02-03T18:32:05;26.97;;;8.30;;
60426;SDS011;46274;47.168;27.604;2023-02-03T18:38:10;24.37;;;8.83;;
60426;SDS011;46274;47.168;27.604;2023-02-03T18:44:12;23.43;;;7.07;;
60426;SDS011;46274;47.168;27.604;2023-02-03T18:50:15;24.30;;;7.57;;
60426;SDS011;46274;47.168;27.604;2023-02-03T18:56:21;17.10;;;6.70;;
60426;SDS011;46274;47.168;27.604;2023-02-03T19:02:27;19.03;;;6.63;;
60426;SDS011;46274;47.168;27.604;2023-02-03T19:08:32;16.60;;;6.20;;
60426;SDS011;46274;47.168;27.604;2023-02-03T19:14:40;21.27;;;7.33;;
60426;SDS011;46274;47.168;27.604;2023-02-03T19:20:46;23.60;;;8.27;;
60426;SDS011;46274;47.168;27.604;2023-02-03T19:26:53;15.93;;;7.43;;
60426;SDS011;46274;47.168;27.604;2023-02-03T19:32:57;16.60;;;7.37;;
60426;SDS011;46274;47.168;27.604;2023-02-03T19:39:00;17.20;;;7.40;;
60426;SDS011;46274;47.168;27.604;2023-02-03T19:45:09;17.73;;;7.23;;
60426;SDS011;46274;47.168;27.604;2023-02-03T19:51:15;25.67;;;9.27;;
60426;SDS011;46274;47.168;27.604;2023-02-03T19:57:18;22.97;;;8.00;;
60426;SDS011;46274;47.168;27.604;2023-02-03T20:03:23;21.27;;;7.13;;
60426;SDS011;46274;47.168;27.604;2023-02-03T20:09:26;19.47;;;8.17;;
60426;SDS011;46274;47.168;27.604;2023-02-03T20:15:28;17.87;;;6.87;;
60426;SDS011;46274;47.168;27.604;2023-02-03T20:21:30;17.30;;;6.37;;
60426;SDS011;46274;47.168;27.604;2023-02-03T20:27:33;17.23;;;5.23;;
60426;SDS011;46274;47.168;27.604;2023-02-03T20:33:35;12.43;;;5.40;;
60426;SDS011;46274;47.168;27.604;2023-02-03T20:39:37;13.00;;;5.47;;
60426;SDS011;46274;47.168;27.604;2023-02-03T20:45:40;12.53;;;5.73;;
60426;SDS011;46274;47.168;27.604;2023-02-03T20:51:42;12.27;;;4.63;;
60426;SDS011;46274;47.168;27.604;2023-02-03T20:57:45;11.30;;;3.90;;
60426;SDS011;46274;47.168;27.604;2023-02-03T21:03:52;12.50;;;5.67;;
60426;SDS011;46274;47.168;27.604;2023-02-03T21:10:16;27.30;;;11.87;;
60426;SDS011;46274;47.168;27.604;2023-02-03T21:16:22;27.13;;;10.73;;
60426;SDS011;46274;47.168;27.604;2023-02-03T21:22:29;21.07;;;8.27;;
60426;SDS011;46274;47.168;27.604;2023-02-03T21:28:33;19.10;;;9.40;;
60426;SDS011;46274;47.168;27.604;2023-02-03T21:34:36;47.10;;;20.90;;
60426;SDS011;46274;47.168;27.604;2023-02-03T21:40:38;39.87;;;19.50;;
60426;SDS011;46274;47.168;27.604;2023-02-03T21:46:42;36.47;;;17.43;;
60426;SDS011;46274;47.168;27.604;2023-02-03T21:52:44;13.53;;;7.57;;
60426;SDS011;46274;47.168;27.604;2023-02-03T21:58:47;18.50;;;7.13;;
60426;SDS011;46274;47.168;27.604;2023-02-03T22:04:52;33.33;;;11.70;;
60426;SDS011;46274;47.168;27.604;2023-02-03T22:10:54;47.63;;;15.50;;
60426;SDS011;46274;47.168;27.604;2023-02-03T22:16:56;24.63;;;9.63;;
60426;SDS011;46274;47.168;27.604;2023-02-03T22:22:58;16.17;;;7.23;;
60426;SDS011;46274;47.168;27.604;2023-02-03T22:29:01;16.77;;;5.77;;
60426;SDS011;46274;47.168;27.604;2023-02-03T22:35:06;11.20;;;4.53;;
60426;SDS011;46274;47.168;27.604;2023-02-03T22:41:13;14.50;;;5.30;;
60426;SDS011;46274;47.168;27.604;2023-02-03T22:47:15;10.53;;;4.90;;
60426;SDS011;46274;47.168;27.604;2023-02-03T22:53:20;14.17;;;5.20;;
60426;SDS011;46274;47.168;27.604;2023-02-03T22:59:22;11.73;;;5.10;;
60426;SDS011;46274;47.168;27.604;2023-02-03T23:05:25;14.30;;;5.57;;
60426;SDS011;46274;47.168;27.604;2023-02-03T23:11:27;12.63;;;5.03;;
60426;SDS011;46274;47.168;27.604;2023-02-03T23:17:30;12.53;;;4.33;;
60426;SDS011;46274;47.168;27.604;2023-02-03T23:23:32;13.23;;;5.57;;
60426;SDS011;46274;47.168;27.604;2023-02-03T23:29:34;15.37;;;5.90;;
60426;SDS011;46274;47.168;27.604;2023-02-03T23:35:40;15.40;;;6.50;;
60426;SDS011;46274;47.168;27.604;2023-02-03T23:41:49;11.60;;;5.00;;
60426;SDS011;46274;47.168;27.604;2023-02-03T23:47:55;19.83;;;6.80;;
60426;SDS011;46274;47.168;27.604;2023-02-03T23:53:57;12.77;;;4.83;;
